sensor_id;sensor_type;location;lat;lon;timestamp;temperature;humidity
2623;DHT22;1321;48.690;9.022;2023-06-22T00:01:23;22.80;1.00
2623;DHT22;1321;48.690;9.022;2023-06-22T00:03:53;22.70;1.00
2623;DHT22;1321;48.690;9.022;2023-06-22T00:06:21;22.80;1.00
2623;DHT22;1321;48.690;9.022;2023-06-22T00:08:49;22.80;1.00
2623;DHT22;1321;48.690;9.022;2023-06-22T00:11:17;22.80;1.00
2623;DHT22;1321;48.690;9.022;2023-06-22T00:13:47;22.80;1.00
2623;DHT22;1321;48.690;9.022;2023-06-22T00:16:16;22.80;1.00
2623;DHT22;1321;48.690;9.022;2023-06-22T00:18:44;22.70;1.00
2623;DHT22;1321;48.690;9.022;2023-06-22T00:21:15;22.70;1.00
2623;DHT22;1321;48.690;9.022;2023-06-22T00:23:43;22.70;1.00
2623;DHT22;1321;48.690;9.022;2023-06-22T00:26:12;22.70;1.00
2623;DHT22;1321;48.690;9.022;2023-06-22T00:28:40;22.70;1.00
2623;DHT22;1321;48.690;9.022;2023-06-22T00:31:08;22.60;51.50
2623;DHT22;1321;48.690;9.022;2023-06-22T00:33:36;22.60;64.10
2623;DHT22;1321;48.690;9.022;2023-06-22T00:36:05;22.60;99.90
2623;DHT22;1321;48.690;9.022;2023-06-22T00:38:35;22.60;99.90
2623;DHT22;1321;48.690;9.022;2023-06-22T00:41:06;22.60;99.90
2623;DHT22;1321;48.690;9.022;2023-06-22T00:43:35;22.70;99.90
2623;DHT22;1321;48.690;9.022;2023-06-22T00:46:03;22.60;99.90
2623;DHT22;1321;48.690;9.022;2023-06-22T00:48:31;22.70;99.90
2623;DHT22;1321;48.690;9.022;2023-06-22T00:51:00;22.70;99.90
2623;DHT22;1321;48.690;9.022;2023-06-22T00:53:28;22.70;72.20
2623;DHT22;1321;48.690;9.022;2023-06-22T00:55:58;22.60;99.90
2623;DHT22;1321;48.690;9.022;2023-06-22T00:58:26;22.70;99.90
2623;DHT22;1321;48.690;9.022;2023-06-22T01:00:54;22.70;99.90
2623;DHT22;1321;48.690;9.022;2023-06-22T01:03:23;22.70;68.10
2623;DHT22;1321;48.690;9.022;2023-06-22T01:05:53;22.60;99.90
2623;DHT22;1321;48.690;9.022;2023-06-22T01:08:29;22.60;99.90
2623;DHT22;1321;48.690;9.022;2023-06-22T01:11:04;22.60;99.90
2623;DHT22;1321;48.690;9.022;2023-06-22T01:13:39;22.60;99.90
2623;DHT22;1321;48.690;9.022;2023-06-22T01:16:14;22.60;99.90
2623;DHT22;1321;48.690;9.022;2023-06-22T01:18:44;22.50;99.90
2623;DHT22;1321;48.690;9.022;2023-06-22T01:21:16;22.30;1.00
2623;DHT22;1321;48.690;9.022;2023-06-22T01:23:56;22.40;1.00
2623;DHT22;1321;48.690;9.022;2023-06-22T01:26:36;22.40;1.00
2623;DHT22;1321;48.690;9.022;2023-06-22T01:29:08;22.30;99.90
2623;DHT22;1321;48.690;9.022;2023-06-22T01:31:39;22.30;1.00
2623;DHT22;1321;48.690;9.022;2023-06-22T01:34:09;22.30;1.00
2623;DHT22;1321;48.690;9.022;2023-06-22T01:36:39;22.30;1.00
2623;DHT22;1321;48.690;9.022;2023-06-22T01:39:08;22.30;1.00
2623;DHT22;1321;48.690;9.022;2023-06-22T01:41:38;22.30;1.00
2623;DHT22;1321;48.690;9.022;2023-06-22T01:44:09;22.40;1.00
2623;DHT22;1321;48.690;9.022;2023-06-22T01:46:37;22.30;1.00
2623;DHT22;1321;48.690;9.022;2023-06-22T01:49:06;22.20;1.00
2623;DHT22;1321;48.690;9.022;2023-06-22T01:51:35;22.20;1.00
2623;DHT22;1321;48.690;9.022;2023-06-22T01:54:05;22.30;1.00
2623;DHT22;1321;48.690;9.022;2023-06-22T01:56:34;22.20;1.00
2623;DHT22;1321;48.690;9.022;2023-06-22T01:59:05;22.20;1.00
2623;DHT22;1321;48.690;9.022;2023-06-22T02:01:44;22.10;1.00
2623;DHT22;1321;48.690;9.022;2023-06-22T02:04:19;22.10;1.00
2623;DHT22;1321;48.690;9.022;2023-06-22T02:06:53;22.20;99.90
2623;DHT22;1321;48.690;9.022;2023-06-22T02:09:23;22.30;99.90
2623;DHT22;1321;48.690;9.022;2023-06-22T02:11:54;22.30;99.90
2623;DHT22;1321;48.690;9.022;2023-06-22T02:14:24;22.20;99.90
2623;DHT22;1321;48.690;9.022;2023-06-22T02:16:54;22.20;99.90
2623;DHT22;1321;48.690;9.022;2023-06-22T02:19:27;22.20;1.00
2623;DHT22;1321;48.690;9.022;2023-06-22T02:21:57;22.10;1.00
2623;DHT22;1321;48.690;9.022;2023-06-22T02:24:25;22.10;1.00
2623;DHT22;1321;48.690;9.022;2023-06-22T02:26:54;22.10;1.00
2623;DHT22;1321;48.690;9.022;2023-06-22T02:29:22;22.00;1.00
2623;DHT22;1321;48.690;9.022;2023-06-22T02:31:50;22.00;1.00
2623;DHT22;1321;48.690;9.022;2023-06-22T02:34:20;21.90;24.50
2623;DHT22;1321;48.690;9.022;2023-06-22T02:36:49;22.00;99.90
2623;DHT22;1321;48.690;9.022;2023-06-22T02:39:23;21.90;50.30
2623;DHT22;1321;48.690;9.022;2023-06-22T02:41:53;21.90;1.00
2623;DHT22;1321;48.690;9.022;2023-06-22T02:44:21;21.80;99.90
2623;DHT22;1321;48.690;9.022;2023-06-22T02:46:49;21.80;24.40
2623;DHT22;1321;48.690;9.022;2023-06-22T02:49:18;21.80;4.90
2623;DHT22;1321;48.690;9.022;2023-06-22T02:51:48;21.90;1.00
2623;DHT22;1321;48.690;9.022;2023-06-22T02:54:16;21.90;1.00
2623;DHT22;1321;48.690;9.022;2023-06-22T02:56:44;21.90;1.00
2623;DHT22;1321;48.690;9.022;2023-06-22T02:59:13;22.00;1.00
2623;DHT22;1321;48.690;9.022;2023-06-22T03:01:41;21.90;1.00
2623;DHT22;1321;48.690;9.022;2023-06-22T03:04:09;22.00;1.00
2623;DHT22;1321;48.690;9.022;2023-06-22T03:06:38;22.00;1.00
2623;DHT22;1321;48.690;9.022;2023-06-22T03:09:09;22.00;99.90
2623;DHT22;1321;48.690;9.022;2023-06-22T03:11:37;22.00;1.00
2623;DHT22;1321;48.690;9.022;2023-06-22T03:14:05;22.00;99.90
2623;DHT22;1321;48.690;9.022;2023-06-22T03:16:34;21.90;99.90
2623;DHT22;1321;48.690;9.022;2023-06-22T03:19:02;21.90;99.90
2623;DHT22;1321;48.690;9.022;2023-06-22T03:21:30;21.90;1.00
2623;DHT22;1321;48.690;9.022;2023-06-22T03:23:58;21.90;1.00
2623;DHT22;1321;48.690;9.022;2023-06-22T03:26:28;21.90;1.00
2623;DHT22;1321;48.690;9.022;2023-06-22T03:28:56;21.80;1.00
2623;DHT22;1321;48.690;9.022;2023-06-22T03:31:25;21.80;1.00
2623;DHT22;1321;48.690;9.022;2023-06-22T03:33:53;21.70;1.00
2623;DHT22;1321;48.690;9.022;2023-06-22T03:36:21;21.70;63.00
2623;DHT22;1321;48.690;9.022;2023-06-22T03:38:50;21.70;1.00
2623;DHT22;1321;48.690;9.022;2023-06-22T03:41:18;21.60;25.40
2623;DHT22;1321;48.690;9.022;2023-06-22T03:43:48;21.60;14.30
2623;DHT22;1321;48.690;9.022;2023-06-22T03:46:16;21.60;99.90
2623;DHT22;1321;48.690;9.022;2023-06-22T03:48:44;21.60;99.90
2623;DHT22;1321;48.690;9.022;2023-06-22T03:51:12;21.50;99.90
2623;DHT22;1321;48.690;9.022;2023-06-22T03:53:41;21.50;1.00
2623;DHT22;1321;48.690;9.022;2023-06-22T03:56:09;21.50;99.90
2623;DHT22;1321;48.690;9.022;2023-06-22T03:58:37;21.60;99.90
2623;DHT22;1321;48.690;9.022;2023-06-22T04:01:11;21.60;99.90
2623;DHT22;1321;48.690;9.022;2023-06-22T04:03:40;21.50;99.90
2623;DHT22;1321;48.690;9.022;2023-06-22T04:06:09;21.50;1.00
2623;DHT22;1321;48.690;9.022;2023-06-22T04:08:37;21.60;99.90
2623;DHT22;1321;48.690;9.022;2023-06-22T04:11:05;21.60;99.90
2623;DHT22;1321;48.690;9.022;2023-06-22T04:13:33;21.60;99.90
2623;DHT22;1321;48.690;9.022;2023-06-22T04:16:01;21.60;99.90
2623;DHT22;1321;48.690;9.022;2023-06-22T04:18:31;21.60;99.90
2623;DHT22;1321;48.690;9.022;2023-06-22T04:20:59;21.60;99.90
2623;DHT22;1321;48.690;9.022;2023-06-22T04:23:27;21.60;99.90
2623;DHT22;1321;48.690;9.022;2023-06-22T04:25:55;21.60;99.90
2623;DHT22;1321;48.690;9.022;2023-06-22T04:28:24;21.60;99.90
2623;DHT22;1321;48.690;9.022;2023-06-22T04:30:54;21.60;1.00
2623;DHT22;1321;48.690;9.022;2023-06-22T04:33:31;21.70;99.90
2623;DHT22;1321;48.690;9.022;2023-06-22T04:35:59;21.70;99.90
2623;DHT22;1321;48.690;9.022;2023-06-22T04:38:28;21.70;1.00
2623;DHT22;1321;48.690;9.022;2023-06-22T04:41:00;21.80;99.90
2623;DHT22;1321;48.690;9.022;2023-06-22T04:43:30;21.80;99.90
2623;DHT22;1321;48.690;9.022;2023-06-22T04:45:58;21.80;99.90
2623;DHT22;1321;48.690;9.022;2023-06-22T04:48:32;21.90;99.90
2623;DHT22;1321;48.690;9.022;2023-06-22T04:51:00;21.90;99.90
2623;DHT22;1321;48.690;9.022;2023-06-22T04:53:30;21.90;96.50
2623;DHT22;1321;48.690;9.022;2023-06-22T04:55:58;21.90;99.90
2623;DHT22;1321;48.690;9.022;2023-06-22T04:58:27;21.90;99.90
2623;DHT22;1321;48.690;9.022;2023-06-22T05:00:55;22.00;99.90
2623;DHT22;1321;48.690;9.022;2023-06-22T05:03:25;22.00;18.30
2623;DHT22;1321;48.690;9.022;2023-06-22T05:05:55;22.00;93.70
2623;DHT22;1321;48.690;9.022;2023-06-22T05:08:24;22.10;1.00
2623;DHT22;1321;48.690;9.022;2023-06-22T05:11:20;22.10;1.00
2623;DHT22;1321;48.690;9.022;2023-06-22T05:15:09;22.10;13.90
2623;DHT22;1321;48.690;9.022;2023-06-22T05:18:07;22.10;1.00
2623;DHT22;1321;48.690;9.022;2023-06-22T05:29:10;22.20;37.30
2623;DHT22;1321;48.690;9.022;2023-06-22T05:42:29;22.40;99.90
2623;DHT22;1321;48.690;9.022;2023-06-22T05:45:03;22.50;99.90
2623;DHT22;1321;48.690;9.022;2023-06-22T05:47:57;22.50;99.90
2623;DHT22;1321;48.690;9.022;2023-06-22T05:51:17;22.50;95.60
2623;DHT22;1321;48.690;9.022;2023-06-22T05:53:45;22.60;1.00
2623;DHT22;1321;48.690;9.022;2023-06-22T06:03:55;22.60;99.90
2623;DHT22;1321;48.690;9.022;2023-06-22T06:10:11;22.60;99.90
2623;DHT22;1321;48.690;9.022;2023-06-22T06:12:55;22.70;99.90
2623;DHT22;1321;48.690;9.022;2023-06-22T06:15:51;22.80;99.90
2623;DHT22;1321;48.690;9.022;2023-06-22T06:23:03;22.90;99.90
2623;DHT22;1321;48.690;9.022;2023-06-22T06:26:37;22.90;99.90
2623;DHT22;1321;48.690;9.022;2023-06-22T06:29:13;22.90;99.90
2623;DHT22;1321;48.690;9.022;2023-06-22T06:35:38;23.00;99.90
2623;DHT22;1321;48.690;9.022;2023-06-22T06:38:22;23.00;99.90
2623;DHT22;1321;48.690;9.022;2023-06-22T06:41:19;23.00;99.90
2623;DHT22;1321;48.690;9.022;2023-06-22T06:43:51;23.00;99.90
2623;DHT22;1321;48.690;9.022;2023-06-22T06:46:44;23.10;99.90
2623;DHT22;1321;48.690;9.022;2023-06-22T06:50:08;23.20;99.90
2623;DHT22;1321;48.690;9.022;2023-06-22T07:13:15;23.60;23.10
2623;DHT22;1321;48.690;9.022;2023-06-22T07:15:44;23.60;1.00
2623;DHT22;1321;48.690;9.022;2023-06-22T07:18:13;23.70;42.60
2623;DHT22;1321;48.690;9.022;2023-06-22T07:20:42;23.70;51.50
2623;DHT22;1321;48.690;9.022;2023-06-22T07:23:10;23.70;65.40
2623;DHT22;1321;48.690;9.022;2023-06-22T07:25:39;23.80;22.50
2623;DHT22;1321;48.690;9.022;2023-06-22T07:28:08;23.90;1.00
2623;DHT22;1321;48.690;9.022;2023-06-22T07:30:36;24.00;1.00
2623;DHT22;1321;48.690;9.022;2023-06-22T07:33:06;24.00;1.00
2623;DHT22;1321;48.690;9.022;2023-06-22T07:35:36;24.10;1.00
2623;DHT22;1321;48.690;9.022;2023-06-22T07:38:04;24.10;1.00
2623;DHT22;1321;48.690;9.022;2023-06-22T07:40:33;24.10;1.00
2623;DHT22;1321;48.690;9.022;2023-06-22T07:43:02;24.10;1.00
2623;DHT22;1321;48.690;9.022;2023-06-22T07:45:30;24.20;1.00
2623;DHT22;1321;48.690;9.022;2023-06-22T07:48:01;24.20;1.00
2623;DHT22;1321;48.690;9.022;2023-06-22T07:50:32;24.20;1.00
2623;DHT22;1321;48.690;9.022;2023-06-22T07:53:00;24.30;1.00
2623;DHT22;1321;48.690;9.022;2023-06-22T07:55:28;24.30;1.00
2623;DHT22;1321;48.690;9.022;2023-06-22T07:57:57;24.40;1.00
2623;DHT22;1321;48.690;9.022;2023-06-22T08:00:25;24.40;1.00
2623;DHT22;1321;48.690;9.022;2023-06-22T08:02:54;24.50;1.00
2623;DHT22;1321;48.690;9.022;2023-06-22T08:05:23;24.50;1.00
2623;DHT22;1321;48.690;9.022;2023-06-22T08:07:54;24.50;1.00
2623;DHT22;1321;48.690;9.022;2023-06-22T08:10:23;24.60;1.00
2623;DHT22;1321;48.690;9.022;2023-06-22T08:12:51;24.70;1.00
2623;DHT22;1321;48.690;9.022;2023-06-22T08:15:20;24.70;1.00
2623;DHT22;1321;48.690;9.022;2023-06-22T08:17:49;24.70;1.00
2623;DHT22;1321;48.690;9.022;2023-06-22T08:20:19;24.70;1.00
2623;DHT22;1321;48.690;9.022;2023-06-22T08:22:47;24.80;1.00
2623;DHT22;1321;48.690;9.022;2023-06-22T08:25:17;24.70;1.00
2623;DHT22;1321;48.690;9.022;2023-06-22T08:27:45;24.80;1.00
2623;DHT22;1321;48.690;9.022;2023-06-22T08:30:16;24.80;1.00
2623;DHT22;1321;48.690;9.022;2023-06-22T08:32:45;24.80;1.00
2623;DHT22;1321;48.690;9.022;2023-06-22T08:35:13;24.80;1.00
2623;DHT22;1321;48.690;9.022;2023-06-22T08:37:41;24.80;1.00
2623;DHT22;1321;48.690;9.022;2023-06-22T08:40:10;24.90;1.00
2623;DHT22;1321;48.690;9.022;2023-06-22T08:42:41;25.00;1.00
2623;DHT22;1321;48.690;9.022;2023-06-22T08:45:10;25.00;1.00
2623;DHT22;1321;48.690;9.022;2023-06-22T08:47:39;25.00;1.00
2623;DHT22;1321;48.690;9.022;2023-06-22T08:50:08;25.00;1.00
2623;DHT22;1321;48.690;9.022;2023-06-22T08:52:37;25.00;1.00
2623;DHT22;1321;48.690;9.022;2023-06-22T08:55:08;25.00;1.00
2623;DHT22;1321;48.690;9.022;2023-06-22T08:57:37;25.10;1.00
2623;DHT22;1321;48.690;9.022;2023-06-22T09:00:08;25.10;1.00
2623;DHT22;1321;48.690;9.022;2023-06-22T09:02:43;25.20;1.00
2623;DHT22;1321;48.690;9.022;2023-06-22T09:05:12;25.20;1.00
2623;DHT22;1321;48.690;9.022;2023-06-22T09:07:40;25.20;1.00
2623;DHT22;1321;48.690;9.022;2023-06-22T09:10:09;25.20;1.00
2623;DHT22;1321;48.690;9.022;2023-06-22T09:12:37;25.30;1.00
2623;DHT22;1321;48.690;9.022;2023-06-22T09:15:07;25.50;1.00
2623;DHT22;1321;48.690;9.022;2023-06-22T09:17:52;25.50;1.00
2623;DHT22;1321;48.690;9.022;2023-06-22T09:20:22;25.50;1.00
2623;DHT22;1321;48.690;9.022;2023-06-22T09:22:50;25.50;1.00
2623;DHT22;1321;48.690;9.022;2023-06-22T09:25:18;25.50;1.00
2623;DHT22;1321;48.690;9.022;2023-06-22T09:27:47;25.60;1.00
2623;DHT22;1321;48.690;9.022;2023-06-22T09:30:17;25.60;1.00
2623;DHT22;1321;48.690;9.022;2023-06-22T09:32:45;25.60;1.00
2623;DHT22;1321;48.690;9.022;2023-06-22T09:35:13;25.70;1.00
2623;DHT22;1321;48.690;9.022;2023-06-22T09:37:41;25.80;1.00
2623;DHT22;1321;48.690;9.022;2023-06-22T09:40:10;25.80;1.00
2623;DHT22;1321;48.690;9.022;2023-06-22T09:42:41;25.90;1.00
2623;DHT22;1321;48.690;9.022;2023-06-22T09:45:10;25.90;1.00
2623;DHT22;1321;48.690;9.022;2023-06-22T09:47:39;26.00;1.00
2623;DHT22;1321;48.690;9.022;2023-06-22T09:50:08;26.00;1.00
2623;DHT22;1321;48.690;9.022;2023-06-22T09:52:37;26.00;1.00
2623;DHT22;1321;48.690;9.022;2023-06-22T09:55:08;26.00;1.00
2623;DHT22;1321;48.690;9.022;2023-06-22T09:57:36;26.20;1.00
2623;DHT22;1321;48.690;9.022;2023-06-22T10:00:05;26.10;1.00
2623;DHT22;1321;48.690;9.022;2023-06-22T10:02:40;26.10;1.00
2623;DHT22;1321;48.690;9.022;2023-06-22T10:05:09;26.10;1.00
2623;DHT22;1321;48.690;9.022;2023-06-22T10:07:37;26.10;1.00
2623;DHT22;1321;48.690;9.022;2023-06-22T10:10:09;26.10;1.00
2623;DHT22;1321;48.690;9.022;2023-06-22T10:12:41;26.20;1.00
2623;DHT22;1321;48.690;9.022;2023-06-22T10:15:10;26.20;1.00
2623;DHT22;1321;48.690;9.022;2023-06-22T10:17:41;26.30;1.00
2623;DHT22;1321;48.690;9.022;2023-06-22T10:20:10;26.20;1.00
2623;DHT22;1321;48.690;9.022;2023-06-22T10:22:42;26.40;1.00
2623;DHT22;1321;48.690;9.022;2023-06-22T10:25:11;26.40;1.00
2623;DHT22;1321;48.690;9.022;2023-06-22T10:27:39;26.40;1.00
2623;DHT22;1321;48.690;9.022;2023-06-22T10:30:09;26.50;1.00
2623;DHT22;1321;48.690;9.022;2023-06-22T10:32:41;26.50;1.00
2623;DHT22;1321;48.690;9.022;2023-06-22T10:35:10;26.50;99.90
2623;DHT22;1321;48.690;9.022;2023-06-22T10:37:41;26.50;99.90
2623;DHT22;1321;48.690;9.022;2023-06-22T10:40:11;26.60;99.90
2623;DHT22;1321;48.690;9.022;2023-06-22T10:42:39;26.70;99.90
2623;DHT22;1321;48.690;9.022;2023-06-22T10:45:11;26.70;99.90
2623;DHT22;1321;48.690;9.022;2023-06-22T10:47:42;26.80;99.90
2623;DHT22;1321;48.690;9.022;2023-06-22T10:50:10;26.90;99.90
2623;DHT22;1321;48.690;9.022;2023-06-22T10:52:38;26.90;99.90
2623;DHT22;1321;48.690;9.022;2023-06-22T10:55:07;27.00;99.90
2623;DHT22;1321;48.690;9.022;2023-06-22T10:57:36;26.90;99.90
2623;DHT22;1321;48.690;9.022;2023-06-22T11:00:07;27.00;99.90
2623;DHT22;1321;48.690;9.022;2023-06-22T11:02:38;27.00;99.90
2623;DHT22;1321;48.690;9.022;2023-06-22T11:05:08;26.90;99.90
2623;DHT22;1321;48.690;9.022;2023-06-22T11:07:37;26.80;99.90
2623;DHT22;1321;48.690;9.022;2023-06-22T11:14:26;26.80;99.90
2623;DHT22;1321;48.690;9.022;2023-06-22T11:18:32;26.70;99.90
2623;DHT22;1321;48.690;9.022;2023-06-22T11:21:51;26.70;99.90
2623;DHT22;1321;48.690;9.022;2023-06-22T11:24:30;26.70;99.90
2623;DHT22;1321;48.690;9.022;2023-06-22T11:27:54;26.70;99.90
2623;DHT22;1321;48.690;9.022;2023-06-22T11:39:50;27.00;99.90
2623;DHT22;1321;48.690;9.022;2023-06-22T11:42:40;27.00;99.90
2623;DHT22;1321;48.690;9.022;2023-06-22T11:45:19;27.00;99.90
2623;DHT22;1321;48.690;9.022;2023-06-22T11:50:37;27.00;99.90
2623;DHT22;1321;48.690;9.022;2023-06-22T11:53:10;27.00;99.90
2623;DHT22;1321;48.690;9.022;2023-06-22T11:55:54;27.00;99.90
2623;DHT22;1321;48.690;9.022;2023-06-22T11:58:23;27.10;99.90
2623;DHT22;1321;48.690;9.022;2023-06-22T12:01:27;27.10;99.90
2623;DHT22;1321;48.690;9.022;2023-06-22T12:04:50;27.00;99.90
2623;DHT22;1321;48.690;9.022;2023-06-22T12:07:36;27.00;99.90
2623;DHT22;1321;48.690;9.022;2023-06-22T12:11:01;27.00;99.90
2623;DHT22;1321;48.690;9.022;2023-06-22T12:13:56;27.00;99.90
2623;DHT22;1321;48.690;9.022;2023-06-22T12:16:28;26.90;99.90
2623;DHT22;1321;48.690;9.022;2023-06-22T12:18:57;27.00;99.90
2623;DHT22;1321;48.690;9.022;2023-06-22T12:21:25;26.90;99.90
2623;DHT22;1321;48.690;9.022;2023-06-22T12:23:54;26.90;99.90
2623;DHT22;1321;48.690;9.022;2023-06-22T12:26:22;27.00;99.90
2623;DHT22;1321;48.690;9.022;2023-06-22T12:28:50;26.90;99.90
2623;DHT22;1321;48.690;9.022;2023-06-22T12:31:20;26.90;99.90
2623;DHT22;1321;48.690;9.022;2023-06-22T12:33:48;26.90;99.90
2623;DHT22;1321;48.690;9.022;2023-06-22T12:36:16;26.90;99.90
2623;DHT22;1321;48.690;9.022;2023-06-22T12:38:44;26.90;99.90
2623;DHT22;1321;48.690;9.022;2023-06-22T12:41:12;26.90;99.90
2623;DHT22;1321;48.690;9.022;2023-06-22T12:43:41;26.90;99.90
2623;DHT22;1321;48.690;9.022;2023-06-22T12:46:09;26.90;99.90
2623;DHT22;1321;48.690;9.022;2023-06-22T12:48:38;26.90;99.90
2623;DHT22;1321;48.690;9.022;2023-06-22T12:51:09;26.90;99.90
2623;DHT22;1321;48.690;9.022;2023-06-22T12:53:37;26.80;99.90
2623;DHT22;1321;48.690;9.022;2023-06-22T12:56:05;26.80;99.90
2623;DHT22;1321;48.690;9.022;2023-06-22T12:58:33;26.80;99.90
2623;DHT22;1321;48.690;9.022;2023-06-22T13:01:02;26.90;99.90
2623;DHT22;1321;48.690;9.022;2023-06-22T13:03:30;26.90;99.90
2623;DHT22;1321;48.690;9.022;2023-06-22T13:05:59;26.90;99.90
2623;DHT22;1321;48.690;9.022;2023-06-22T13:08:29;26.90;99.90
2623;DHT22;1321;48.690;9.022;2023-06-22T13:11:17;26.90;99.90
2623;DHT22;1321;48.690;9.022;2023-06-22T13:13:46;26.90;99.90
2623;DHT22;1321;48.690;9.022;2023-06-22T13:16:14;27.00;99.90
2623;DHT22;1321;48.690;9.022;2023-06-22T13:18:42;27.10;99.90
2623;DHT22;1321;48.690;9.022;2023-06-22T13:21:11;27.10;99.90
2623;DHT22;1321;48.690;9.022;2023-06-22T13:23:41;27.10;99.90
2623;DHT22;1321;48.690;9.022;2023-06-22T13:26:09;27.10;99.90
2623;DHT22;1321;48.690;9.022;2023-06-22T13:28:37;27.10;99.90
2623;DHT22;1321;48.690;9.022;2023-06-22T13:31:07;27.10;99.90
2623;DHT22;1321;48.690;9.022;2023-06-22T13:33:37;27.20;99.90
2623;DHT22;1321;48.690;9.022;2023-06-22T13:36:05;27.20;99.90
2623;DHT22;1321;48.690;9.022;2023-06-22T13:38:35;27.10;99.90
2623;DHT22;1321;48.690;9.022;2023-06-22T13:41:05;27.10;99.90
2623;DHT22;1321;48.690;9.022;2023-06-22T13:43:41;27.10;99.90
2623;DHT22;1321;48.690;9.022;2023-06-22T13:46:19;27.20;99.90
2623;DHT22;1321;48.690;9.022;2023-06-22T13:48:47;27.10;99.90
2623;DHT22;1321;48.690;9.022;2023-06-22T13:51:16;27.10;99.90
2623;DHT22;1321;48.690;9.022;2023-06-22T13:53:53;27.20;99.90
2623;DHT22;1321;48.690;9.022;2023-06-22T13:56:29;27.20;99.90
2623;DHT22;1321;48.690;9.022;2023-06-22T13:59:06;27.20;99.90
2623;DHT22;1321;48.690;9.022;2023-06-22T14:01:36;27.30;99.90
2623;DHT22;1321;48.690;9.022;2023-06-22T14:04:34;27.30;99.90
2623;DHT22;1321;48.690;9.022;2023-06-22T14:07:06;27.40;99.90
2623;DHT22;1321;48.690;9.022;2023-06-22T14:09:57;27.50;99.90
2623;DHT22;1321;48.690;9.022;2023-06-22T14:12:30;27.70;99.90
2623;DHT22;1321;48.690;9.022;2023-06-22T14:14:59;27.70;99.90
2623;DHT22;1321;48.690;9.022;2023-06-22T14:17:28;27.70;99.90
2623;DHT22;1321;48.690;9.022;2023-06-22T14:19:56;27.80;99.90
2623;DHT22;1321;48.690;9.022;2023-06-22T14:22:33;27.80;99.90
2623;DHT22;1321;48.690;9.022;2023-06-22T14:25:05;27.80;99.90
2623;DHT22;1321;48.690;9.022;2023-06-22T14:27:33;27.90;99.90
2623;DHT22;1321;48.690;9.022;2023-06-22T14:32:40;28.00;99.90
2623;DHT22;1321;48.690;9.022;2023-06-22T14:35:08;28.00;99.90
2623;DHT22;1321;48.690;9.022;2023-06-22T14:37:36;28.10;99.90
2623;DHT22;1321;48.690;9.022;2023-06-22T14:40:07;28.10;99.90
2623;DHT22;1321;48.690;9.022;2023-06-22T14:42:35;28.20;99.90
2623;DHT22;1321;48.690;9.022;2023-06-22T14:45:04;28.30;99.90
2623;DHT22;1321;48.690;9.022;2023-06-22T14:47:32;28.30;99.90
2623;DHT22;1321;48.690;9.022;2023-06-22T14:50:00;28.30;99.90
2623;DHT22;1321;48.690;9.022;2023-06-22T14:52:28;28.30;99.90
2623;DHT22;1321;48.690;9.022;2023-06-22T14:54:56;28.30;99.90
2623;DHT22;1321;48.690;9.022;2023-06-22T14:57:26;28.30;99.90
2623;DHT22;1321;48.690;9.022;2023-06-22T14:59:55;28.30;99.90
2623;DHT22;1321;48.690;9.022;2023-06-22T15:02:23;28.30;99.90
2623;DHT22;1321;48.690;9.022;2023-06-22T15:04:51;28.30;99.90
2623;DHT22;1321;48.690;9.022;2023-06-22T15:07:20;28.30;99.90
2623;DHT22;1321;48.690;9.022;2023-06-22T15:09:48;28.40;99.90
2623;DHT22;1321;48.690;9.022;2023-06-22T15:12:16;28.30;99.90
2623;DHT22;1321;48.690;9.022;2023-06-22T15:14:49;28.30;99.90
2623;DHT22;1321;48.690;9.022;2023-06-22T15:17:19;28.30;99.90
2623;DHT22;1321;48.690;9.022;2023-06-22T15:19:47;28.30;99.90
2623;DHT22;1321;48.690;9.022;2023-06-22T15:22:18;28.30;99.90
2623;DHT22;1321;48.690;9.022;2023-06-22T15:24:46;28.20;99.90
2623;DHT22;1321;48.690;9.022;2023-06-22T15:27:15;28.20;99.90
2623;DHT22;1321;48.690;9.022;2023-06-22T15:29:43;28.20;99.90
2623;DHT22;1321;48.690;9.022;2023-06-22T15:32:13;28.20;99.90
2623;DHT22;1321;48.690;9.022;2023-06-22T15:34:41;28.20;99.90
2623;DHT22;1321;48.690;9.022;2023-06-22T15:37:09;28.30;99.90
2623;DHT22;1321;48.690;9.022;2023-06-22T15:39:37;28.40;99.90
2623;DHT22;1321;48.690;9.022;2023-06-22T15:42:06;28.40;99.90
2623;DHT22;1321;48.690;9.022;2023-06-22T15:44:34;28.40;99.90
2623;DHT22;1321;48.690;9.022;2023-06-22T15:47:02;28.30;99.90
2623;DHT22;1321;48.690;9.022;2023-06-22T15:49:32;28.20;99.90
2623;DHT22;1321;48.690;9.022;2023-06-22T15:52:00;28.20;99.90
2623;DHT22;1321;48.690;9.022;2023-06-22T15:54:28;28.10;99.90
2623;DHT22;1321;48.690;9.022;2023-06-22T15:56:56;28.10;99.90
2623;DHT22;1321;48.690;9.022;2023-06-22T15:59:24;28.00;99.90
2623;DHT22;1321;48.690;9.022;2023-06-22T16:01:52;28.00;99.90
2623;DHT22;1321;48.690;9.022;2023-06-22T16:04:22;28.00;99.90
2623;DHT22;1321;48.690;9.022;2023-06-22T16:06:51;28.00;99.90
2623;DHT22;1321;48.690;9.022;2023-06-22T16:09:19;27.90;99.90
2623;DHT22;1321;48.690;9.022;2023-06-22T16:11:48;27.90;99.90
2623;DHT22;1321;48.690;9.022;2023-06-22T16:14:16;27.80;99.90
2623;DHT22;1321;48.690;9.022;2023-06-22T16:16:44;27.80;99.90
2623;DHT22;1321;48.690;9.022;2023-06-22T16:19:12;27.70;99.90
2623;DHT22;1321;48.690;9.022;2023-06-22T16:21:40;27.70;99.90
2623;DHT22;1321;48.690;9.022;2023-06-22T16:24:09;27.70;99.90
2623;DHT22;1321;48.690;9.022;2023-06-22T16:26:39;27.70;99.90
2623;DHT22;1321;48.690;9.022;2023-06-22T16:29:07;27.70;99.90
2623;DHT22;1321;48.690;9.022;2023-06-22T16:31:36;27.70;99.90
2623;DHT22;1321;48.690;9.022;2023-06-22T16:34:05;27.70;99.90
2623;DHT22;1321;48.690;9.022;2023-06-22T16:36:33;27.70;99.90
2623;DHT22;1321;48.690;9.022;2023-06-22T16:39:01;27.70;99.90
2623;DHT22;1321;48.690;9.022;2023-06-22T16:41:31;27.70;99.90
2623;DHT22;1321;48.690;9.022;2023-06-22T16:44:00;27.60;99.90
2623;DHT22;1321;48.690;9.022;2023-06-22T16:46:32;27.60;99.90
2623;DHT22;1321;48.690;9.022;2023-06-22T16:49:01;27.60;99.90
2623;DHT22;1321;48.690;9.022;2023-06-22T16:51:29;27.70;99.90
2623;DHT22;1321;48.690;9.022;2023-06-22T16:53:57;27.60;99.90
2623;DHT22;1321;48.690;9.022;2023-06-22T16:56:25;27.50;99.90
2623;DHT22;1321;48.690;9.022;2023-06-22T16:58:57;27.50;99.90
2623;DHT22;1321;48.690;9.022;2023-06-22T17:01:29;27.40;99.90
2623;DHT22;1321;48.690;9.022;2023-06-22T17:04:04;27.50;99.90
2623;DHT22;1321;48.690;9.022;2023-06-22T17:06:34;27.40;99.90
2623;DHT22;1321;48.690;9.022;2023-06-22T17:09:03;27.40;99.90
2623;DHT22;1321;48.690;9.022;2023-06-22T17:11:32;27.40;99.90
2623;DHT22;1321;48.690;9.022;2023-06-22T17:14:01;27.40;99.90
2623;DHT22;1321;48.690;9.022;2023-06-22T17:16:31;27.30;99.90
2623;DHT22;1321;48.690;9.022;2023-06-22T17:19:00;27.30;99.90
2623;DHT22;1321;48.690;9.022;2023-06-22T17:21:33;27.20;99.90
2623;DHT22;1321;48.690;9.022;2023-06-22T17:24:01;27.10;99.90
2623;DHT22;1321;48.690;9.022;2023-06-22T17:26:30;27.10;99.90
2623;DHT22;1321;48.690;9.022;2023-06-22T17:28:58;27.00;99.90
2623;DHT22;1321;48.690;9.022;2023-06-22T17:31:37;27.00;99.90
2623;DHT22;1321;48.690;9.022;2023-06-22T17:34:08;26.90;99.90
2623;DHT22;1321;48.690;9.022;2023-06-22T17:36:43;26.80;99.90
2623;DHT22;1321;48.690;9.022;2023-06-22T17:39:13;26.70;99.90
2623;DHT22;1321;48.690;9.022;2023-06-22T17:41:43;26.60;99.90
2623;DHT22;1321;48.690;9.022;2023-06-22T17:44:13;26.60;99.90
2623;DHT22;1321;48.690;9.022;2023-06-22T17:46:46;26.50;99.90
2623;DHT22;1321;48.690;9.022;2023-06-22T17:49:18;26.50;99.90
2623;DHT22;1321;48.690;9.022;2023-06-22T17:51:49;26.50;99.90
2623;DHT22;1321;48.690;9.022;2023-06-22T17:54:18;26.40;99.90
2623;DHT22;1321;48.690;9.022;2023-06-22T17:56:57;26.40;99.90